TimeCDT,TemperatureF,Dew PointF,Humidity,Sea Level PressureIn,VisibilityMPH,Wind Direction,Wind SpeedMPH,Gust SpeedMPH,PrecipitationIn,Events,Conditions,WindDirDegrees,DateUTC
12:53 AM,57.9,43.0,58,29.84,10.0,NW,21.9,27.6,N/A,,Clear,320,2012-10-14 05:53:00
1:53 AM,57.0,42.1,57,29.87,10.0,NW,15.0,-,N/A,,Clear,320,2012-10-14 06:53:00
2:53 AM,57.0,42.1,57,29.91,10.0,NW,16.1,-,N/A,,Clear,310,2012-10-14 07:53:00
3:53 AM,55.9,42.1,60,29.93,10.0,NNW,19.6,27.6,N/A,,Clear,330,2012-10-14 08:53:00
4:53 AM,55.0,42.1,62,29.96,10.0,NW,15.0,-,N/A,,Clear,320,2012-10-14 09:53:00
5:53 AM,53.1,43.0,69,30.00,10.0,NW,9.2,-,N/A,,Clear,310,2012-10-14 10:53:00
6:53 AM,51.1,43.0,74,30.06,10.0,West,10.4,-,N/A,,Clear,280,2012-10-14 11:53:00
7:53 AM,51.1,43.0,74,30.10,10.0,West,11.5,-,N/A,,Clear,280,2012-10-14 12:53:00
8:53 AM,54.0,43.0,66,30.12,10.0,WNW,11.5,-,N/A,,Clear,290,2012-10-14 13:53:00
9:53 AM,61.0,42.1,50,30.15,10.0,NNW,12.7,-,N/A,,Clear,330,2012-10-14 14:53:00
10:53 AM,66.9,39.0,36,30.14,10.0,North,16.1,-,N/A,,Clear,350,2012-10-14 15:53:00
11:53 AM,69.1,39.9,35,30.14,10.0,North,16.1,21.9,N/A,,Clear,350,2012-10-14 16:53:00
12:53 PM,72.0,42.1,34,30.13,10.0,NNW,16.1,-,N/A,,Clear,330,2012-10-14 17:53:00
1:53 PM,73.0,39.9,30,30.10,10.0,NNW,8.1,20.7,N/A,,Clear,340,2012-10-14 18:53:00
3:53 PM,75.0,37.9,26,30.07,10.0,WNW,6.9,-,N/A,,Clear,300,2012-10-14 20:53:00
4:53 PM,73.9,37.0,26,30.06,10.0,NW,12.7,17.3,N/A,,Clear,310,2012-10-14 21:53:00
5:53 PM,73.9,37.0,26,30.06,10.0,North,5.8,-,N/A,,Clear,360,2012-10-14 22:53:00
6:53 PM,69.1,39.0,33,30.08,10.0,North,4.6,-,N/A,,Clear,360,2012-10-14 23:53:00
7:53 PM,66.0,39.0,37,30.09,10.0,Calm,Calm,-,N/A,,Clear,0,2012-10-15 00:53:00
8:53 PM,63.0,39.9,43,30.09,10.0,Calm,Calm,-,N/A,,Clear,0,2012-10-15 01:53:00
9:53 PM,55.9,42.1,60,30.10,10.0,SSW,3.5,-,N/A,,Clear,200,2012-10-15 02:53:00
10:53 PM,54.0,41.0,62,30.10,10.0,SW,6.9,-,N/A,,Clear,220,2012-10-15 03:53:00
11:53 PM,52.0,41.0,66,30.10,10.0,SW,6.9,-,N/A,,Clear,220,2012-10-15 04:53:00